Time;durP1;ratioP1;P1;durP2;ratioP2;P2;SDS_P1;SDS_P2;PMS_P1;PMS_P2;Temp;Humidity;BMP_temperature;BMP_pressure;BME280_temperature;BME280_humidity;BME280_pressure;Samples;Min_cycle;Max_cycle;Signal;HPM_P1;HPM_P2
2022/03/12 00:02:16;;;;;;;0.60;0.47;;;6.40;59.10;;;;;;5089484;28;20118;-80
2022/03/12 00:04:44;;;;;;;0.28;0.10;;;6.40;59.30;;;;;;5082410;27;20039;-79
2022/03/12 00:07:12;;;;;;;0.32;0.25;;;6.40;59.00;;;;;;5093037;28;20031;-79
2022/03/12 00:09:38;;;;;;;0.22;0.22;;;6.40;59.00;;;;;;5091032;28;20040;-80
2022/03/12 00:12:05;;;;;;;0.90;0.30;;;6.50;59.40;;;;;;5090228;28;20073;-80
2022/03/12 00:14:32;;;;;;;0.20;0.20;;;6.40;59.60;;;;;;5097717;28;20035;-80
2022/03/12 00:16:58;;;;;;;0.13;0.10;;;6.40;59.30;;;;;;5114453;28;20637;-80
2022/03/12 00:19:24;;;;;;;0.65;0.35;;;6.40;59.20;;;;;;5097701;28;20635;-80
2022/03/12 00:21:49;;;;;;;0.57;0.47;;;6.40;59.50;;;;;;5089688;28;20035;-80
2022/03/12 00:24:16;;;;;;;1.00;0.55;;;6.40;59.30;;;;;;5094124;28;20031;-80
2022/03/12 00:26:43;;;;;;;0.95;0.45;;;6.30;59.50;;;;;;5073565;28;20462;-80
2022/03/12 00:29:14;;;;;;;0.47;0.30;;;6.30;59.50;;;;;;5090362;28;20035;-80
2022/03/12 00:31:50;;;;;;;1.00;0.68;;;6.30;59.40;;;;;;5099305;28;20407;-81
2022/03/12 00:34:17;;;;;;;0.47;0.35;;;6.40;59.30;;;;;;5097845;28;20122;-80
2022/03/12 00:36:43;;;;;;;1.67;0.60;;;6.30;59.10;;;;;;5103560;28;20035;-80
2022/03/12 00:39:10;;;;;;;0.20;0.20;;;6.30;59.50;;;;;;5117911;28;20046;-80
2022/03/12 00:41:38;;;;;;;1.55;0.32;;;6.30;59.30;;;;;;5097369;28;20127;-80
2022/03/12 00:44:05;;;;;;;0.55;0.40;;;6.30;59.40;;;;;;5081657;28;20032;-80
2022/03/12 00:46:31;;;;;;;1.25;0.47;;;6.30;59.30;;;;;;5088638;27;20100;-80
2022/03/12 00:48:57;;;;;;;0.60;0.60;;;6.30;59.20;;;;;;5118381;27;20043;-80
2022/03/12 00:51:23;;;;;;;0.10;0.10;;;6.30;59.10;;;;;;5114186;27;20118;-80
2022/03/12 00:53:48;;;;;;;0.20;0.20;;;6.30;59.00;;;;;;5113998;27;20476;-80
2022/03/12 00:56:14;;;;;;;1.58;0.68;;;6.40;59.10;;;;;;5097472;27;20051;-80
2022/03/12 00:58:45;;;;;;;0.40;0.40;;;6.30;59.20;;;;;;5074594;28;20042;-80
2022/03/12 01:01:11;;;;;;;0.10;0.10;;;6.30;59.30;;;;;;5091713;28;20392;-80
2022/03/12 01:03:37;;;;;;;3.00;0.30;;;6.30;59.20;;;;;;5071677;28;20109;-80
2022/03/12 01:06:05;;;;;;;0.52;0.40;;;6.40;59.40;;;;;;5092814;27;20495;-80
2022/03/12 01:08:32;;;;;;;1.08;0.63;;;6.40;59.30;;;;;;5075329;27;20053;-80
2022/03/12 01:11:00;;;;;;;0.40;0.40;;;6.40;59.20;;;;;;5091467;28;20038;-80
2022/03/12 01:13:27;;;;;;;0.47;0.32;;;6.40;59.00;;;;;;5091063;27;20040;-80
2022/03/12 01:15:54;;;;;;;1.70;0.65;;;6.40;59.10;;;;;;5092019;27;20546;-80
2022/03/12 01:18:22;;;;;;;3.33;0.90;;;6.40;59.00;;;;;;5107578;27;20087;-80
2022/03/12 01:20:49;;;;;;;0.35;0.35;;;6.40;58.80;;;;;;5114514;27;20114;-80
2022/03/12 01:23:17;;;;;;;0.75;0.45;;;6.40;58.40;;;;;;5100706;28;20380;-80
2022/03/12 01:25:44;;;;;;;2.53;0.68;;;6.40;58.80;;;;;;5099509;27;20388;-81
2022/03/12 01:28:11;;;;;;;0.45;0.32;;;6.40;58.80;;;;;;5127263;27;20031;-80
2022/03/12 01:30:38;;;;;;;0.63;0.45;;;6.40;58.80;;;;;;5099374;27;20027;-80
2022/03/12 01:33:04;;;;;;;0.43;0.30;;;6.50;58.60;;;;;;5103125;28;20066;-81
2022/03/12 01:35:30;;;;;;;0.63;0.38;;;6.40;58.40;;;;;;5094331;27;20039;-80
2022/03/12 01:37:55;;;;;;;0.85;0.52;;;6.50;58.50;;;;;;5125421;27;20042;-80
2022/03/12 01:40:21;;;;;;;1.05;0.50;;;6.50;58.30;;;;;;5115491;27;20043;-80
2022/03/12 01:42:47;;;;;;;1.35;0.90;;;6.50;58.00;;;;;;5124943;27;20069;-80
2022/03/12 01:45:26;;;;;;;2.83;1.05;;;6.50;57.80;;;;;;5083623;28;20645;-81
2022/03/12 01:47:55;;;;;;;1.48;0.70;;;6.50;57.90;;;;;;5122890;27;20130;-81
2022/03/12 01:50:21;;;;;;;0.77;0.38;;;6.50;58.10;;;;;;5107058;27;20027;-81
2022/03/12 01:52:48;;;;;;;1.40;0.73;;;6.50;58.10;;;;;;5090608;28;20059;-80
2022/03/12 01:55:14;;;;;;;2.45;0.52;;;6.50;58.50;;;;;;5085394;28;20027;-81
2022/03/12 01:57:40;;;;;;;0.22;0.22;;;6.50;58.10;;;;;;5104461;28;20071;-80
2022/03/12 02:00:06;;;;;;;0.38;0.38;;;6.50;58.10;;;;;;5086875;28;20508;-80
2022/03/12 02:02:34;;;;;;;0.38;0.38;;;6.50;58.20;;;;;;5099648;28;20758;-80
2022/03/12 02:05:00;;;;;;;0.38;0.38;;;6.50;58.30;;;;;;5087705;28;20035;-81
2022/03/12 02:07:27;;;;;;;0.85;0.30;;;6.50;58.20;;;;;;5083226;28;20034;-81
2022/03/12 02:09:52;;;;;;;2.40;0.63;;;6.50;57.80;;;;;;5099410;28;20480;-81
2022/03/12 02:12:18;;;;;;;0.43;0.32;;;6.50;58.00;;;;;;5096989;28;20032;-80
2022/03/12 02:14:44;;;;;;;0.10;0.10;;;6.50;57.90;;;;;;5087648;28;20039;-80
2022/03/12 02:17:11;;;;;;;0.35;0.35;;;6.60;57.80;;;;;;5098357;28;20093;-80
2022/03/12 02:19:39;;;;;;;2.72;0.30;;;6.50;57.90;;;;;;5102523;28;20078;-80
2022/03/12 02:22:07;;;;;;;0.55;0.25;;;6.60;58.10;;;;;;5102403;28;20044;-81
2022/03/12 02:24:35;;;;;;;0.70;0.22;;;6.50;57.90;;;;;;5098867;28;20043;-78
2022/03/12 02:27:04;;;;;;;1.08;0.38;;;6.50;57.90;;;;;;5075300;28;20031;-78
2022/03/12 02:29:30;;;;;;;0.32;0.32;;;6.50;58.00;;;;;;5078458;28;20036;-78
2022/03/12 02:32:00;;;;;;;0.85;0.40;;;6.50;57.70;;;;;;5083243;28;20461;-78
2022/03/12 02:34:38;;;;;;;0.13;0.13;;;6.50;57.60;;;;;;5081229;28;20031;-77
2022/03/12 02:37:05;;;;;;;1.35;0.75;;;6.50;57.60;;;;;;5072645;28;20027;-78
2022/03/12 02:39:31;;;;;;;1.23;0.63;;;6.50;57.50;;;;;;5103602;28;20117;-78
2022/03/12 02:42:00;;;;;;;0.85;0.40;;;6.50;58.00;;;;;;5101455;28;20035;-78
2022/03/12 02:44:26;;;;;;;0.73;0.55;;;6.50;57.90;;;;;;5081722;28;20214;-78
2022/03/12 02:47:14;;;;;;;0.73;0.43;;;6.50;57.70;;;;;;5099480;28;20088;-78
2022/03/12 02:49:51;;;;;;;1.08;0.57;;;6.40;57.90;;;;;;5086098;28;20050;-78
2022/03/12 02:52:18;;;;;;;1.65;0.65;;;6.50;58.50;;;;;;5098622;28;20212;-78
2022/03/12 02:54:46;;;;;;;0.20;0.20;;;6.40;57.90;;;;;;5099039;28;20062;-78
2022/03/12 02:57:12;;;;;;;0.52;0.30;;;6.40;58.40;;;;;;5101028;28;20070;-78
2022/03/12 02:59:39;;;;;;;0.60;0.57;;;6.50;58.30;;;;;;5096242;28;20035;-78
2022/03/12 03:02:07;;;;;;;0.30;0.15;;;6.40;58.20;;;;;;5084729;28;20054;-78
2022/03/12 03:04:35;;;;;;;0.93;0.60;;;6.40;58.10;;;;;;5081564;28;20075;-78
2022/03/12 03:07:03;;;;;;;0.88;0.50;;;6.40;58.10;;;;;;5095606;28;20059;-78
2022/03/12 03:09:29;;;;;;;0.30;0.20;;;6.40;58.30;;;;;;5079101;28;20432;-78
2022/03/12 03:11:57;;;;;;;0.63;0.50;;;6.40;58.60;;;;;;5088802;28;20032;-78
2022/03/12 03:14:26;;;;;;;0.32;0.22;;;6.40;58.30;;;;;;5100219;28;20031;-77
2022/03/12 03:16:53;;;;;;;0.45;0.30;;;6.40;58.10;;;;;;5096450;28;20110;-77
2022/03/12 03:19:26;;;;;;;0.90;0.32;;;6.40;58.40;;;;;;5083624;28;20491;-77
2022/03/12 03:21:53;;;;;;;0.57;0.38;;;6.40;58.60;;;;;;5083123;28;20108;-77
2022/03/12 03:24:20;;;;;;;0.47;0.25;;;6.40;58.50;;;;;;5082726;28;20036;-77
2022/03/12 03:26:57;;;;;;;1.80;0.80;;;6.40;58.50;;;;;;5082960;28;20058;-77
2022/03/12 03:29:24;;;;;;;0.60;0.40;;;6.40;58.40;;;;;;5101582;28;20039;-77
2022/03/12 03:31:50;;;;;;;1.40;0.73;;;6.40;58.30;;;;;;5081895;28;20035;-77
2022/03/12 03:34:17;;;;;;;0.55;0.25;;;6.40;58.40;;;;;;5073258;28;20043;-77
2022/03/12 03:36:43;;;;;;;0.30;0.10;;;6.30;58.30;;;;;;5074458;28;20040;-77
2022/03/12 03:39:09;;;;;;;0.55;0.32;;;6.40;58.00;;;;;;5102729;28;20042;-77
2022/03/12 03:41:35;;;;;;;0.60;0.38;;;6.40;58.10;;;;;;5096766;28;20032;-78
2022/03/12 03:44:00;;;;;;;1.02;0.55;;;6.40;58.00;;;;;;5071423;28;20144;-78
2022/03/12 03:46:26;;;;;;;0.55;0.13;;;6.40;58.30;;;;;;5081110;28;20050;-77
2022/03/12 03:48:53;;;;;;;0.47;0.47;;;6.40;58.40;;;;;;5056632;28;20032;-77
2022/03/12 03:51:20;;;;;;;2.17;0.47;;;6.30;58.20;;;;;;5084572;28;20038;-77
2022/03/12 03:53:47;;;;;;;1.10;0.45;;;6.30;58.20;;;;;;5077537;27;20059;-77
2022/03/12 03:56:13;;;;;;;1.05;0.43;;;6.30;58.40;;;;;;5076712;28;20175;-77
2022/03/12 03:58:38;;;;;;;1.30;0.40;;;6.30;58.60;;;;;;5105479;27;20047;-77
2022/03/12 04:01:10;;;;;;;2.13;0.95;;;6.30;58.50;;;;;;5082389;28;20046;-77
2022/03/12 04:03:37;;;;;;;0.08;0.08;;;6.30;58.70;;;;;;5086718;28;20051;-77
2022/03/12 04:06:04;;;;;;;0.65;0.32;;;6.30;58.20;;;;;;5090882;28;20043;-77
2022/03/12 04:08:31;;;;;;;0.30;0.10;;;6.30;58.40;;;;;;5076717;28;20524;-77
2022/03/12 04:10:57;;;;;;;0.55;0.40;;;6.20;58.80;;;;;;5090770;28;20161;-77
2022/03/12 04:13:23;;;;;;;0.35;0.32;;;6.20;58.40;;;;;;5089131;27;20107;-77
2022/03/12 04:15:50;;;;;;;0.40;0.28;;;6.20;58.40;;;;;;5072459;27;20135;-78
2022/03/12 04:18:18;;;;;;;0.28;0.28;;;6.20;59.00;;;;;;5071554;28;20170;-78
2022/03/12 04:20:47;;;;;;;0.80;0.35;;;6.20;58.80;;;;;;5072832;28;20044;-78
2022/03/12 04:23:19;;;;;;;0.43;0.30;;;6.20;58.80;;;;;;5090379;28;20044;-78
2022/03/12 04:25:49;;;;;;;0.45;0.25;;;6.20;58.90;;;;;;5093180;28;20036;-77
2022/03/12 04:28:15;;;;;;;3.65;0.65;;;6.10;58.70;;;;;;5090860;27;20054;-77
2022/03/12 04:30:41;;;;;;;0.88;0.43;;;6.20;58.60;;;;;;5094568;27;20044;-77
2022/03/12 04:33:09;;;;;;;0.65;0.40;;;6.20;58.90;;;;;;5077474;28;20066;-78
2022/03/12 04:35:34;;;;;;;0.20;0.20;;;6.10;58.60;;;;;;5083754;28;20031;-78
2022/03/12 04:38:01;;;;;;;1.00;0.45;;;6.10;58.70;;;;;;5087541;28;20027;-78
2022/03/12 04:40:27;;;;;;;0.30;0.20;;;6.10;58.80;;;;;;5075576;28;20035;-78
2022/03/12 04:42:53;;;;;;;0.25;0.10;;;6.20;58.80;;;;;;5094357;27;21429;-78
2022/03/12 04:45:25;;;;;;;0.60;0.40;;;6.20;58.80;;;;;;5079114;27;20035;-78
2022/03/12 04:47:52;;;;;;;0.40;0.38;;;6.10;58.90;;;;;;5089990;27;20040;-77
2022/03/12 04:50:19;;;;;;;1.60;0.50;;;6.10;58.70;;;;;;5077618;28;20042;-77
2022/03/12 04:52:48;;;;;;;2.42;0.73;;;6.10;58.40;;;;;;5075814;27;20055;-77
2022/03/12 04:55:16;;;;;;;0.43;0.25;;;6.10;58.50;;;;;;5093229;27;20040;-77
2022/03/12 04:57:43;;;;;;;0.57;0.47;;;6.10;58.80;;;;;;5088927;27;20044;-77
2022/03/12 05:00:25;;;;;;;1.15;0.28;;;6.10;59.10;;;;;;5094482;28;20057;-77
2022/03/12 05:02:56;;;;;;;0.35;0.20;;;6.00;59.30;;;;;;5093174;27;20078;-77
2022/03/12 05:05:21;;;;;;;0.40;0.40;;;6.00;59.40;;;;;;5075914;27;20043;-78
2022/03/12 05:07:48;;;;;;;0.38;0.10;;;6.00;58.90;;;;;;5089796;27;20401;-78
2022/03/12 05:10:18;;;;;;;0.22;0.22;;;6.00;59.40;;;;;;5103099;27;20042;-78
2022/03/12 05:12:50;;;;;;;0.50;0.30;;;6.00;59.50;;;;;;5075919;27;20096;-78
2022/03/12 05:15:17;;;;;;;0.10;0.10;;;6.00;59.40;;;;;;5088511;28;20035;-77
2022/03/12 05:17:48;;;;;;;0.20;0.20;;;5.90;59.10;;;;;;5089593;28;20044;-78
2022/03/12 05:20:21;;;;;;;1.35;0.47;;;5.90;59.40;;;;;;5093505;27;20156;-78
2022/03/12 05:22:47;;;;;;;1.25;0.68;;;5.90;59.30;;;;;;5071207;27;20039;-77
2022/03/12 05:25:13;;;;;;;0.93;0.52;;;5.90;59.20;;;;;;5077491;27;20503;-77
2022/03/12 05:27:39;;;;;;;0.70;0.50;;;5.90;59.00;;;;;;5072324;28;20043;-77
2022/03/12 05:30:05;;;;;;;0.50;0.50;;;5.80;59.00;;;;;;5081916;27;20388;-77
2022/03/12 05:32:31;;;;;;;0.70;0.40;;;5.80;59.40;;;;;;5091884;28;20047;-77
2022/03/12 05:34:56;;;;;;;1.25;0.70;;;5.80;59.50;;;;;;5074019;28;20042;-77
2022/03/12 05:37:22;;;;;;;0.40;0.40;;;5.80;59.30;;;;;;5085692;28;20088;-77
2022/03/12 05:39:51;;;;;;;0.45;0.30;;;5.80;59.10;;;;;;5074604;28;20115;-78
2022/03/12 05:42:22;;;;;;;0.10;0.10;;;5.80;59.20;;;;;;5075476;27;20420;-78
2022/03/12 05:44:51;;;;;;;0.30;0.20;;;5.80;59.50;;;;;;5073564;28;20043;-78
2022/03/12 05:47:18;;;;;;;0.47;0.45;;;5.80;59.20;;;;;;5087246;28;20130;-77
2022/03/12 05:49:44;;;;;;;1.38;0.30;;;5.80;58.90;;;;;;5090870;28;20046;-77
2022/03/12 05:52:10;;;;;;;0.20;0.20;;;5.80;59.40;;;;;;5087470;27;20042;-77
2022/03/12 05:54:37;;;;;;;0.43;0.38;;;5.70;59.40;;;;;;5093725;27;20063;-77
2022/03/12 05:57:03;;;;;;;0.10;0.10;;;5.70;59.40;;;;;;5108746;27;20063;-77
2022/03/12 05:59:29;;;;;;;0.93;0.65;;;5.70;59.50;;;;;;5098007;27;20031;-77
2022/03/12 06:01:55;;;;;;;0.40;0.40;;;5.70;59.20;;;;;;5112830;27;20039;-78
2022/03/12 06:04:27;;;;;;;0.15;0.15;;;5.70;59.40;;;;;;5126339;27;20041;-78
2022/03/12 06:06:54;;;;;;;0.95;0.45;;;5.70;59.70;;;;;;5095391;27;20038;-78
2022/03/12 06:09:19;;;;;;;0.57;0.55;;;5.70;59.60;;;;;;5113275;27;20031;-78
2022/03/12 06:11:45;;;;;;;0.47;0.47;;;5.70;59.70;;;;;;5092818;27;20031;-78
2022/03/12 06:14:14;;;;;;;1.02;0.22;;;5.70;59.80;;;;;;5116229;27;20073;-78
2022/03/12 06:16:41;;;;;;;0.32;0.30;;;5.70;59.80;;;;;;5110845;27;20077;-78
2022/03/12 06:19:09;;;;;;;1.27;0.55;;;5.70;59.60;;;;;;5113052;27;20542;-78
2022/03/12 06:21:34;;;;;;;0.32;0.32;;;5.70;60.10;;;;;;5120936;27;20030;-77
2022/03/12 06:24:02;;;;;;;0.60;0.55;;;5.70;59.90;;;;;;5121667;27;20409;-78
2022/03/12 06:26:31;;;;;;;0.63;0.52;;;5.70;60.00;;;;;;5112038;27;20074;-78
2022/03/12 06:28:59;;;;;;;1.55;0.47;;;5.70;60.10;;;;;;5123623;27;20058;-77
2022/03/12 06:31:24;;;;;;;1.52;0.77;;;5.70;60.30;;;;;;5113892;27;20036;-77
2022/03/12 06:33:50;;;;;;;0.20;0.20;;;5.70;60.70;;;;;;5098916;27;20079;-78
2022/03/12 06:36:16;;;;;;;0.32;0.20;;;5.70;60.40;;;;;;5097470;27;20438;-78
2022/03/12 06:38:42;;;;;;;1.55;0.55;;;5.80;60.50;;;;;;5106509;27;20035;-78
2022/03/12 06:41:08;;;;;;;0.30;0.30;;;5.80;60.30;;;;;;5084348;27;20036;-78
2022/03/12 06:43:33;;;;;;;0.73;0.43;;;5.80;60.40;;;;;;5111300;27;20060;-78
2022/03/12 06:46:01;;;;;;;1.50;0.52;;;5.80;60.30;;;;;;5116857;27;20027;-78
2022/03/12 06:48:28;;;;;;;1.30;0.68;;;5.80;60.40;;;;;;5092821;27;20027;-78
2022/03/12 06:50:55;;;;;;;1.65;0.88;;;5.80;60.60;;;;;;5104622;27;20114;-78
2022/03/12 06:53:21;;;;;;;1.42;0.70;;;5.80;60.50;;;;;;5099414;27;20102;-78
2022/03/12 06:55:46;;;;;;;1.63;0.55;;;5.80;60.70;;;;;;5102960;27;20690;-78
2022/03/12 06:58:12;;;;;;;2.42;0.98;;;5.80;60.50;;;;;;5096607;27;20104;-78
2022/03/12 07:00:38;;;;;;;1.38;0.55;;;5.90;60.80;;;;;;5105455;27;20031;-78
2022/03/12 07:03:04;;;;;;;4.00;0.77;;;5.90;60.90;;;;;;5115880;27;20039;-78
2022/03/12 07:05:30;;;;;;;0.20;0.20;;;5.90;60.70;;;;;;5114198;27;20084;-78
2022/03/12 07:07:56;;;;;;;0.55;0.43;;;6.00;60.80;;;;;;5105534;27;20193;-78
2022/03/12 07:10:23;;;;;;;0.45;0.32;;;6.00;60.90;;;;;;5093110;27;20031;-78
2022/03/12 07:12:49;;;;;;;1.60;0.70;;;6.00;60.80;;;;;;5122975;27;20108;-78
2022/03/12 07:15:17;;;;;;;1.38;0.75;;;6.00;61.00;;;;;;5097389;27;20041;-77
2022/03/12 07:17:43;;;;;;;0.90;0.47;;;6.00;60.80;;;;;;5089738;27;20484;-77
2022/03/12 07:20:13;;;;;;;0.88;0.60;;;6.00;60.90;;;;;;5105405;27;20051;-77
2022/03/12 07:22:39;;;;;;;1.25;0.43;;;6.00;60.80;;;;;;5118602;27;20119;-77
2022/03/12 07:25:07;;;;;;;0.47;0.32;;;6.00;60.80;;;;;;5088708;27;20519;-77
2022/03/12 07:27:32;;;;;;;1.00;0.77;;;6.00;61.20;;;;;;5105067;27;20047;-77
2022/03/12 07:30:00;;;;;;;2.00;0.47;;;6.00;61.20;;;;;;5116751;27;20030;-77
2022/03/12 07:32:28;;;;;;;2.13;0.57;;;6.00;61.40;;;;;;5106469;27;20063;-77
2022/03/12 07:34:54;;;;;;;0.32;0.32;;;6.00;61.70;;;;;;5106996;27;20480;-77
2022/03/12 07:37:21;;;;;;;0.25;0.20;;;6.00;61.30;;;;;;5113051;27;20045;-77
2022/03/12 07:39:47;;;;;;;1.30;0.73;;;6.00;61.70;;;;;;5115613;27;20411;-77
2022/03/12 07:42:13;;;;;;;1.33;0.75;;;6.00;61.80;;;;;;5091169;27;20112;-77
2022/03/12 07:44:39;;;;;;;1.25;0.75;;;6.00;61.90;;;;;;5091782;27;20046;-77
2022/03/12 07:47:06;;;;;;;0.30;0.30;;;6.10;62.10;;;;;;5085726;27;20031;-77
2022/03/12 07:49:32;;;;;;;1.65;0.55;;;6.10;62.70;;;;;;5134795;27;20046;-77
2022/03/12 07:51:58;;;;;;;0.63;0.43;;;6.20;62.40;;;;;;5105017;27;20055;-77
2022/03/12 07:54:23;;;;;;;0.35;0.30;;;6.20;62.30;;;;;;5091108;27;20039;-77
2022/03/12 07:56:49;;;;;;;1.02;0.55;;;6.20;62.50;;;;;;5112957;27;20077;-77
2022/03/12 07:59:15;;;;;;;0.10;0.10;;;6.30;62.20;;;;;;5113362;27;20384;-77
2022/03/12 08:01:41;;;;;;;0.73;0.30;;;6.30;62.00;;;;;;5107110;27;20484;-78
2022/03/12 08:04:07;;;;;;;0.20;0.20;;;6.40;62.30;;;;;;5106010;27;20114;-76
2022/03/12 08:06:33;;;;;;;0.40;0.40;;;6.40;62.50;;;;;;5098210;27;20510;-76
2022/03/12 08:09:00;;;;;;;1.27;0.63;;;6.50;63.60;;;;;;5104514;27;20177;-78
2022/03/12 08:11:28;;;;;;;1.65;0.85;;;6.50;63.00;;;;;;5089420;27;20042;-77
2022/03/12 08:14:09;;;;;;;0.50;0.47;;;6.60;62.90;;;;;;5092417;27;20070;-77
2022/03/12 08:16:36;;;;;;;2.33;0.88;;;6.70;63.00;;;;;;5104084;27;20511;-77
2022/03/12 08:19:03;;;;;;;0.88;0.30;;;6.70;62.80;;;;;;5104203;27;20028;-77
2022/03/12 08:21:30;;;;;;;1.25;0.60;;;6.80;63.10;;;;;;5093713;27;20496;-77
2022/03/12 08:23:56;;;;;;;2.92;0.50;;;6.90;62.90;;;;;;5085382;27;20036;-78
2022/03/12 08:26:21;;;;;;;0.55;0.50;;;6.90;62.90;;;;;;5106747;27;20054;-78
2022/03/12 08:28:47;;;;;;;1.85;0.60;;;7.00;63.10;;;;;;5087130;27;20078;-77
2022/03/12 08:31:14;;;;;;;2.30;0.65;;;7.10;63.10;;;;;;5107723;27;20043;-77
2022/03/12 08:33:40;;;;;;;0.60;0.40;;;7.10;63.50;;;;;;5085095;27;20122;-77
2022/03/12 08:36:06;;;;;;;2.67;0.70;;;7.20;63.20;;;;;;5100649;27;20570;-77
2022/03/12 08:38:34;;;;;;;0.80;0.40;;;7.30;63.50;;;;;;5097541;27;20502;-77
2022/03/12 08:41:01;;;;;;;2.25;0.57;;;7.30;63.30;;;;;;5138410;27;20088;-77
2022/03/12 08:43:27;;;;;;;1.58;0.47;;;7.40;63.20;;;;;;5108064;27;20047;-77
2022/03/12 08:45:53;;;;;;;1.58;0.73;;;7.50;63.30;;;;;;5119680;27;20041;-77
2022/03/12 08:48:19;;;;;;;0.80;0.60;;;7.50;63.20;;;;;;5105938;27;20040;-77
2022/03/12 08:50:46;;;;;;;0.75;0.40;;;7.60;63.40;;;;;;5101155;27;20048;-77
2022/03/12 08:53:12;;;;;;;2.00;0.28;;;7.70;63.10;;;;;;5104294;27;20408;-77
2022/03/12 08:55:38;;;;;;;0.47;0.30;;;7.70;63.10;;;;;;5112379;27;20068;-77
2022/03/12 08:58:04;;;;;;;0.95;0.63;;;7.80;63.80;;;;;;5122985;27;20035;-77
2022/03/12 09:00:30;;;;;;;5.50;0.90;;;7.80;63.70;;;;;;5109529;27;20412;-77
2022/03/12 09:02:56;;;;;;;0.47;0.30;;;7.80;63.40;;;;;;5093988;27;20039;-77
2022/03/12 09:05:22;;;;;;;0.93;0.50;;;7.90;63.50;;;;;;5129893;27;20055;-77
2022/03/12 09:07:51;;;;;;;1.65;0.47;;;8.00;63.60;;;;;;5130058;27;20034;-77
2022/03/12 09:10:17;;;;;;;1.30;0.70;;;8.00;63.40;;;;;;5113159;27;20047;-77
2022/03/12 09:12:43;;;;;;;4.07;0.63;;;8.00;63.60;;;;;;5107370;27;20067;-77
2022/03/12 09:15:09;;;;;;;0.35;0.32;;;8.00;63.80;;;;;;5102669;27;20590;-77
2022/03/12 09:17:35;;;;;;;1.02;0.50;;;8.10;64.10;;;;;;5082666;27;20514;-77
2022/03/12 09:20:06;;;;;;;2.40;0.80;;;8.20;64.30;;;;;;5111292;27;20580;-77
2022/03/12 09:22:31;;;;;;;1.63;0.85;;;8.20;64.70;;;;;;5117925;27;20438;-77
2022/03/12 09:24:57;;;;;;;1.38;0.90;;;8.30;64.90;;;;;;5117264;27;20041;-77
2022/03/12 09:27:23;;;;;;;1.67;0.45;;;8.40;65.40;;;;;;5134370;27;20083;-77
2022/03/12 09:29:49;;;;;;;0.20;0.20;;;8.40;65.00;;;;;;5111038;27;20042;-77
2022/03/12 09:32:14;;;;;;;1.08;0.47;;;8.50;65.00;;;;;;5095251;27;20035;-77
2022/03/12 09:34:40;;;;;;;1.55;0.45;;;8.50;65.00;;;;;;5102356;27;20121;-77
2022/03/12 09:37:08;;;;;;;1.92;1.20;;;8.60;65.70;;;;;;5101322;27;20028;-77
2022/03/12 09:39:34;;;;;;;2.20;0.60;;;8.60;65.90;;;;;;5106708;27;20035;-77
2022/03/12 09:42:00;;;;;;;0.47;0.28;;;8.80;67.30;;;;;;5104437;27;20468;-77
2022/03/12 09:44:26;;;;;;;4.13;0.85;;;8.80;66.80;;;;;;5114629;27;20088;-78
2022/03/12 09:46:52;;;;;;;1.17;0.60;;;8.90;66.70;;;;;;5119363;27;20050;-78
2022/03/12 09:49:17;;;;;;;0.98;0.52;;;9.00;67.30;;;;;;5112393;27;20035;-78
2022/03/12 09:51:43;;;;;;;1.23;0.45;;;9.10;67.80;;;;;;5117649;27;20508;-78
2022/03/12 09:54:11;;;;;;;1.27;0.50;;;9.20;67.50;;;;;;5107831;27;20047;-77
2022/03/12 09:56:37;;;;;;;1.05;0.50;;;9.20;67.80;;;;;;5092937;27;20035;-77
2022/03/12 09:59:05;;;;;;;0.50;0.30;;;9.30;68.70;;;;;;5094992;27;20027;-77
2022/03/12 10:01:31;;;;;;;2.05;0.57;;;9.40;68.50;;;;;;5112011;27;20491;-77
2022/03/12 10:03:57;;;;;;;0.77;0.63;;;9.50;68.90;;;;;;5093253;27;20039;-77
2022/03/12 10:06:22;;;;;;;1.63;0.98;;;9.50;69.30;;;;;;5108982;27;20112;-77
2022/03/12 10:08:48;;;;;;;1.10;0.30;;;9.60;70.50;;;;;;5120215;27;20456;-77
2022/03/12 10:11:14;;;;;;;1.67;0.70;;;9.70;70.10;;;;;;5095883;27;20040;-77
2022/03/12 10:13:39;;;;;;;0.63;0.38;;;9.80;71.20;;;;;;5104989;27;20062;-77
2022/03/12 10:16:07;;;;;;;1.85;0.50;;;9.90;72.20;;;;;;5090970;27;20031;-77
2022/03/12 10:18:32;;;;;;;2.22;0.68;;;10.00;71.70;;;;;;5107238;27;20035;-77
2022/03/12 10:20:58;;;;;;;1.20;0.40;;;10.20;71.90;;;;;;5101865;27;20049;-80
2022/03/12 10:23:24;;;;;;;2.42;0.93;;;10.30;72.20;;;;;;5116357;27;20046;-75
2022/03/12 10:25:50;;;;;;;0.90;0.38;;;10.30;72.20;;;;;;5114994;27;20038;-76
2022/03/12 10:28:16;;;;;;;3.90;0.70;;;10.40;72.70;;;;;;5117215;27;20566;-75
2022/03/12 10:30:42;;;;;;;1.25;0.75;;;10.40;73.40;;;;;;5099109;27;20034;-75
2022/03/12 10:33:07;;;;;;;3.00;0.38;;;10.50;72.90;;;;;;5095049;27;20043;-76
2022/03/12 10:35:37;;;;;;;1.77;0.68;;;10.50;73.50;;;;;;5096046;27;20046;-76
2022/03/12 10:38:10;;;;;;;1.05;0.35;;;10.50;73.60;;;;;;5120273;27;20376;-76
2022/03/12 10:40:35;;;;;;;0.47;0.30;;;10.50;74.50;;;;;;5095059;27;20107;-76
2022/03/12 10:43:05;;;;;;;1.00;0.63;;;10.50;74.60;;;;;;5110713;27;20706;-76
2022/03/12 10:45:52;;;;;;;0.32;0.32;;;10.50;75.10;;;;;;5115383;27;20435;-78
2022/03/12 10:48:21;;;;;;;3.13;0.50;;;10.60;76.90;;;;;;5099381;27;20031;-78
2022/03/12 10:50:50;;;;;;;1.00;0.63;;;10.60;75.70;;;;;;5099789;27;20516;-79
2022/03/12 10:53:17;;;;;;;2.20;0.98;;;10.60;74.50;;;;;;5111682;27;20143;-80
2022/03/12 10:55:49;;;;;;;0.47;0.43;;;10.70;75.20;;;;;;5111823;27;20055;-77
2022/03/12 10:58:26;;;;;;;2.10;0.93;;;10.70;74.90;;;;;;5106193;27;20138;-78
2022/03/12 11:00:55;;;;;;;3.05;1.50;;;10.80;77.00;;;;;;5103770;27;20092;-75
2022/03/12 11:03:25;;;;;;;2.15;0.82;;;10.80;76.10;;;;;;5110121;27;20043;-75
2022/03/12 11:05:52;;;;;;;0.88;0.57;;;10.90;77.70;;;;;;5106110;27;20042;-75
2022/03/12 11:08:20;;;;;;;0.75;0.32;;;10.90;76.20;;;;;;5082239;27;20067;-76
2022/03/12 11:10:59;;;;;;;2.50;0.85;;;10.90;77.50;;;;;;5088474;27;20089;-76
2022/03/12 11:13:40;;;;;;;1.85;0.47;;;10.90;78.50;;;;;;5115952;27;20035;-77
2022/03/12 11:16:35;;;;;;;1.63;0.52;;;11.00;80.00;;;;;;5090398;27;20035;-76
2022/03/12 11:19:10;;;;;;;2.65;0.40;;;11.00;80.00;;;;;;5117897;27;20054;-76
2022/03/12 11:21:52;;;;;;;0.90;0.38;;;11.10;79.70;;;;;;5095797;27;20042;-76
2022/03/12 11:24:27;;;;;;;1.10;0.65;;;11.10;80.00;;;;;;5094314;27;20051;-76
2022/03/12 11:27:03;;;;;;;1.05;0.55;;;11.20;79.50;;;;;;5113139;27;20129;-77
2022/03/12 11:29:29;;;;;;;;;;;11.30;79.90;;;;;;5104755;27;20043;-76
2022/03/12 11:32:04;;;;;;;1.63;0.85;;;11.40;85.20;;;;;;5103716;27;19923;-76
2022/03/12 11:34:34;;;;;;;1.92;0.60;;;11.40;80.00;;;;;;5090333;27;20503;-76
2022/03/12 11:37:04;;;;;;;1.60;0.73;;;11.50;80.70;;;;;;5093773;27;20035;-76
2022/03/12 11:39:32;;;;;;;0.88;0.45;;;11.50;80.30;;;;;;5105801;27;20126;-76
2022/03/12 11:42:23;;;;;;;1.30;0.55;;;11.50;80.40;;;;;;5103472;27;20122;-76
2022/03/12 11:44:50;;;;;;;0.88;0.43;;;11.40;80.80;;;;;;5091283;27;20043;-77
2022/03/12 11:47:19;;;;;;;1.02;0.70;;;11.40;81.40;;;;;;5106102;27;20031;-76
2022/03/12 11:49:46;;;;;;;1.50;0.70;;;11.40;81.60;;;;;;5102439;27;20040;-76
2022/03/12 11:52:12;;;;;;;1.27;0.70;;;11.50;81.30;;;;;;5088604;27;20074;-76
2022/03/12 11:54:43;;;;;;;1.33;0.57;;;11.50;82.50;;;;;;5107298;27;20039;-76
2022/03/12 11:57:28;;;;;;;0.75;0.40;;;11.50;82.10;;;;;;5085313;27;20039;-76
2022/03/12 11:59:55;;;;;;;1.33;0.57;;;11.50;82.80;;;;;;5102433;27;20039;-76
2022/03/12 12:02:24;;;;;;;1.05;0.70;;;11.50;84.10;;;;;;5097927;27;20057;-76
2022/03/12 12:04:53;;;;;;;1.02;0.52;;;11.50;83.40;;;;;;5105642;27;20050;-76
2022/03/12 12:07:20;;;;;;;0.40;0.20;;;11.50;83.10;;;;;;5097558;27;20038;-76
2022/03/12 12:09:45;;;;;;;0.50;0.30;;;11.50;83.90;;;;;;5105799;27;20067;-77
2022/03/12 12:12:12;;;;;;;1.02;0.60;;;11.60;85.90;;;;;;5105676;27;20082;-76
2022/03/12 12:14:39;;;;;;;0.77;0.43;;;11.70;84.00;;;;;;5089281;27;20043;-76
2022/03/12 12:17:05;;;;;;;2.10;0.75;;;11.80;84.20;;;;;;5125299;27;20448;-76
2022/03/12 12:19:31;;;;;;;1.30;0.52;;;11.90;83.60;;;;;;5099390;27;20034;-76
2022/03/12 12:21:56;;;;;;;1.55;0.73;;;11.90;83.00;;;;;;5099021;27;20047;-76
2022/03/12 12:24:35;;;;;;;1.98;0.65;;;11.90;83.10;;;;;;5105017;27;20035;-76
2022/03/12 12:27:06;;;;;;;1.70;0.73;;;11.90;84.80;;;;;;5112306;27;20039;-76
2022/03/12 12:29:54;;;;;;;4.82;1.40;;;11.90;83.90;;;;;;5120656;27;20044;-76
2022/03/12 12:32:22;;;;;;;1.67;0.95;;;11.80;85.70;;;;;;5105748;27;20058;-76
2022/03/12 12:35:03;;;;;;;1.40;0.85;;;11.90;83.70;;;;;;5101804;27;20043;-76
2022/03/12 12:37:47;;;;;;;0.82;0.52;;;11.90;83.60;;;;;;5123179;27;20046;-76
2022/03/12 12:40:30;;;;;;;1.52;0.70;;;12.00;84.00;;;;;;5092849;27;20035;-76
2022/03/12 12:43:03;;;;;;;1.27;0.68;;;12.00;83.80;;;;;;5093501;27;20035;-76
2022/03/12 12:45:32;;;;;;;1.27;0.65;;;12.00;83.10;;;;;;5125239;27;20403;-76
2022/03/12 12:48:09;;;;;;;1.15;0.57;;;12.00;83.60;;;;;;5099450;27;20094;-77
2022/03/12 12:50:36;;;;;;;0.28;0.28;;;12.00;85.10;;;;;;5101518;27;20039;-77
2022/03/12 12:53:13;;;;;;;0.95;0.60;;;12.00;83.20;;;;;;5092565;27;20477;-76
2022/03/12 12:55:41;;;;;;;0.80;0.50;;;12.00;84.00;;;;;;5093115;27;20173;-76
2022/03/12 12:58:07;;;;;;;0.47;0.20;;;12.10;83.20;;;;;;5117402;27;20130;-76
2022/03/12 13:00:38;;;;;;;0.80;0.50;;;12.10;83.20;;;;;;5119192;27;20042;-76